createdAt,value
2022-08-03T00:00:07.495Z,22.83
2022-08-03T00:05:13.859Z,22.75
2022-08-03T00:10:15.316Z,22.68
2022-08-03T00:15:17.181Z,22.61
2022-08-03T00:20:18.622Z,22.54
2022-08-03T00:25:19.933Z,22.46
2022-08-03T00:30:21.353Z,22.41
2022-08-03T00:35:35.110Z,22.35
2022-08-03T00:40:38.656Z,22.28
2022-08-03T00:45:41.232Z,22.21
2022-08-03T00:50:42.938Z,22.19
2022-08-03T00:55:44.617Z,22.19
2022-08-03T01:00:46.242Z,22.20
2022-08-03T01:05:58.921Z,22.23
2022-08-03T01:11:10.134Z,22.25
2022-08-03T01:16:28.006Z,22.23
2022-08-03T01:21:52.480Z,22.20
2022-08-03T01:26:59.875Z,22.18
2022-08-03T01:33:00.249Z,22.17
2022-08-03T01:37:42.709Z,22.13
2022-08-03T01:42:45.441Z,22.07
2022-08-03T01:47:48.238Z,21.97
2022-08-03T01:52:50.306Z,21.88
2022-08-03T01:58:05.410Z,21.87
2022-08-03T02:03:08.591Z,21.88
2022-08-03T02:08:12.294Z,21.85
2022-08-03T02:13:15.119Z,21.82
2022-08-03T02:18:18.405Z,21.81
2022-08-03T02:23:19.773Z,21.80
2022-08-03T02:28:22.229Z,21.81
2022-08-03T02:33:34.423Z,21.81
2022-08-03T02:44:06.974Z,21.74
2022-08-03T02:49:42.153Z,21.68
2022-08-03T02:54:32.578Z,21.63
2022-08-03T02:59:34.444Z,21.61
2022-08-03T03:04:35.853Z,21.59
2022-08-03T03:09:41.844Z,21.58
2022-08-03T03:14:44.678Z,21.58
2022-08-03T03:19:47.088Z,21.53
2022-08-03T03:24:51.625Z,21.47
2022-08-03T03:29:53.069Z,21.41
2022-08-03T03:34:54.885Z,21.35
2022-08-03T03:39:56.239Z,21.29
2022-08-03T03:44:58.000Z,21.23
2022-08-03T03:50:02.054Z,21.17
2022-08-03T03:55:03.533Z,21.11
2022-08-03T04:00:06.065Z,21.06
2022-08-03T04:05:26.759Z,21.03
2022-08-03T04:10:50.216Z,21.02
2022-08-03T04:15:51.874Z,21.05
2022-08-03T04:20:54.338Z,21.08
2022-08-03T04:25:56.309Z,21.11
2022-08-03T04:30:57.889Z,21.15
2022-08-03T04:36:03.685Z,21.26
2022-08-03T04:41:05.541Z,21.33
2022-08-03T04:46:07.745Z,21.41
2022-08-03T04:51:10.835Z,21.50
2022-08-03T04:56:12.188Z,21.60
2022-08-03T05:01:13.677Z,21.71
2022-08-03T05:06:16.262Z,21.82
2022-08-03T05:11:18.035Z,21.97
2022-08-03T05:16:19.490Z,22.12
2022-08-03T05:21:20.835Z,22.28
2022-08-03T05:26:22.180Z,22.46
2022-08-03T05:31:23.595Z,22.60
2022-08-03T05:36:25.108Z,22.79
2022-08-03T05:41:36.597Z,22.98
2022-08-03T05:46:39.053Z,23.16
2022-08-03T05:51:40.495Z,23.34
2022-08-03T05:56:41.849Z,23.50
2022-08-03T06:01:43.296Z,23.69
2022-08-03T06:06:44.773Z,23.88
2022-08-03T06:11:46.125Z,24.06
2022-08-03T06:16:47.535Z,24.29
2022-08-03T06:21:48.882Z,24.49
2022-08-03T06:26:52.187Z,24.70
2022-08-03T06:31:53.569Z,24.92
2022-08-03T06:37:01.371Z,25.14
2022-08-03T06:42:04.067Z,25.35
2022-08-03T06:47:05.474Z,25.56
2022-08-03T06:52:07.103Z,25.77
2022-08-03T06:57:09.585Z,25.96
2022-08-03T07:02:11.489Z,26.15
2022-08-03T07:07:13.833Z,26.35
2022-08-03T07:12:15.313Z,26.52
2022-08-03T07:17:16.774Z,26.69
2022-08-03T07:22:18.231Z,26.85
2022-08-03T07:27:19.754Z,27.00
2022-08-03T07:32:21.176Z,27.14
2022-08-03T07:37:22.611Z,27.31
2022-08-03T07:42:24.150Z,27.46
2022-08-03T07:47:34.841Z,27.58
2022-08-03T07:52:49.655Z,27.72
2022-08-03T07:58:01.219Z,27.87
2022-08-03T08:03:02.776Z,28.03
2022-08-03T08:08:04.265Z,28.19
2022-08-03T08:13:05.684Z,28.32
2022-08-03T08:18:07.073Z,28.45
2022-08-03T08:23:25.479Z,28.59
2022-08-03T08:28:33.679Z,28.68
2022-08-03T08:34:03.302Z,28.82
2022-08-03T08:38:57.424Z,28.91
2022-08-03T08:44:00.171Z,28.94
2022-08-03T08:49:05.169Z,29.03
2022-08-03T08:54:07.474Z,29.14
2022-08-03T08:59:08.914Z,29.28
2022-08-03T09:04:10.463Z,29.38
2022-08-03T09:09:11.992Z,29.49
2022-08-03T09:14:39.166Z,29.67
2022-08-03T09:20:03.676Z,29.79
2022-08-03T09:25:24.061Z,29.90
2022-08-03T09:30:34.674Z,30.03
2022-08-03T09:35:57.806Z,30.13
2022-08-03T09:41:00.790Z,30.28
2022-08-03T09:46:03.907Z,30.32
2022-08-03T09:51:13.057Z,30.35
2022-08-03T09:56:35.762Z,30.47
2022-08-03T10:01:37.344Z,30.50
2022-08-03T10:06:38.802Z,30.65
2022-08-03T10:11:42.241Z,30.87
2022-08-03T10:16:44.957Z,30.99
2022-08-03T10:21:49.362Z,31.03
2022-08-03T10:26:51.548Z,31.13
2022-08-03T10:31:58.090Z,31.33
2022-08-03T10:37:00.041Z,31.54
2022-08-03T10:42:02.827Z,31.62
2022-08-03T10:47:04.822Z,31.66
2022-08-03T10:52:13.793Z,31.68
2022-08-03T10:57:47.443Z,31.78
2022-08-03T11:03:03.970Z,31.89
2022-08-03T11:08:18.336Z,31.96
2022-08-03T11:13:20.963Z,32.06
2022-08-03T11:18:22.770Z,32.23
2022-08-03T11:24:05.046Z,32.38
2022-08-03T11:29:25.796Z,32.54
2022-08-03T11:34:27.282Z,32.62
2022-08-03T11:39:38.981Z,32.71
2022-08-03T11:44:40.967Z,32.73
2022-08-03T11:49:43.088Z,32.78
2022-08-03T11:54:44.715Z,32.87
2022-08-03T11:59:46.129Z,32.98
2022-08-03T12:04:58.167Z,33.05
2022-08-03T12:10:06.576Z,33.16
2022-08-03T12:15:08.664Z,33.26
2022-08-03T12:20:10.309Z,33.35
2022-08-03T12:25:20.015Z,33.47
2022-08-03T12:30:41.594Z,33.55
2022-08-03T12:35:52.557Z,33.59
2022-08-03T12:41:16.564Z,33.73
2022-08-03T12:46:19.142Z,33.78
2022-08-03T12:51:20.590Z,33.89
2022-08-03T12:56:22.274Z,33.89
2022-08-03T13:01:24.452Z,33.92
2022-08-03T13:06:27.505Z,33.92
2022-08-03T13:11:55.967Z,33.98
2022-08-03T13:16:50.350Z,34.09
2022-08-03T13:21:53.772Z,34.31
2022-08-03T13:28:01.630Z,34.89
2022-08-03T13:32:28.835Z,35.33
2022-08-03T13:37:32.088Z,35.67
2022-08-03T13:42:34.392Z,35.70
2022-08-03T13:47:36.828Z,35.68
2022-08-03T13:52:38.291Z,35.62
2022-08-03T13:58:05.036Z,35.65
2022-08-03T14:03:12.802Z,35.66
2022-08-03T14:08:14.984Z,35.70
2022-08-03T14:13:17.451Z,35.61
2022-08-03T14:18:28.943Z,35.58
2022-08-03T14:23:35.392Z,35.51
2022-08-03T14:28:36.798Z,35.36
2022-08-03T14:33:38.527Z,35.26
2022-08-03T14:44:04.482Z,35.22
2022-08-03T14:50:30.494Z,35.18
2022-08-03T14:54:30.762Z,35.19
2022-08-03T14:59:57.100Z,35.27
2022-08-03T15:04:53.533Z,35.36
2022-08-03T15:09:55.034Z,35.34
2022-08-03T15:14:56.686Z,35.33
2022-08-03T15:20:01.596Z,35.31
2022-08-03T15:26:31.997Z,35.35
2022-08-03T15:30:27.133Z,35.35
2022-08-03T15:35:28.866Z,35.32
2022-08-03T15:40:30.412Z,35.22
2022-08-03T15:45:36.315Z,35.18
2022-08-03T15:50:38.534Z,35.08
2022-08-03T15:55:40.441Z,35.03
2022-08-03T16:00:42.533Z,34.99
2022-08-03T16:05:43.945Z,34.94
2022-08-03T16:10:46.637Z,34.80
2022-08-03T16:15:49.924Z,34.67
2022-08-03T16:20:51.356Z,34.67
2022-08-03T16:25:53.033Z,34.65
2022-08-03T16:30:54.352Z,34.62
2022-08-03T16:35:55.742Z,34.67
2022-08-03T16:40:57.166Z,34.64
2022-08-03T16:45:58.522Z,34.56
2022-08-03T16:50:59.882Z,34.55
2022-08-03T16:56:01.279Z,34.59
2022-08-03T17:01:10.853Z,34.59
2022-08-03T17:06:24.342Z,34.54
2022-08-03T17:11:35.370Z,34.52
2022-08-03T17:16:38.632Z,34.68
2022-08-03T17:21:42.549Z,34.80
2022-08-03T17:26:53.147Z,34.77
2022-08-03T17:31:54.919Z,34.84
2022-08-03T17:37:05.162Z,35.01
2022-08-03T17:42:29.309Z,35.38
2022-08-03T17:47:29.300Z,35.10
2022-08-03T17:52:48.158Z,34.66
2022-08-03T17:58:05.943Z,34.29
2022-08-03T18:03:26.208Z,33.97
2022-08-03T18:08:38.649Z,33.69
2022-08-03T18:13:57.624Z,33.44
2022-08-03T18:19:00.605Z,33.16
2022-08-03T18:24:10.917Z,32.90
2022-08-03T18:29:13.456Z,32.67
2022-08-03T18:34:33.404Z,32.48
2022-08-03T18:39:49.287Z,32.26
2022-08-03T18:44:53.549Z,32.08
2022-08-03T18:50:03.285Z,31.87
2022-08-03T18:55:12.525Z,31.64
2022-08-03T19:00:24.958Z,31.43
2022-08-03T19:05:56.220Z,31.20
2022-08-03T19:11:06.173Z,30.98
2022-08-03T19:16:09.535Z,30.80
2022-08-03T19:21:15.646Z,30.63
2022-08-03T19:26:30.347Z,30.48
2022-08-03T19:31:35.037Z,30.34
2022-08-03T19:42:08.224Z,30.11
2022-08-03T19:47:17.057Z,29.97
2022-08-03T19:52:20.581Z,29.83
2022-08-03T19:57:27.130Z,29.69
2022-08-03T20:02:29.762Z,29.51
2022-08-03T20:07:32.783Z,29.30
2022-08-03T20:12:38.745Z,29.13
2022-08-03T20:17:55.203Z,28.96
2022-08-03T20:22:59.489Z,28.79
2022-08-03T20:28:13.834Z,28.65
2022-08-03T20:33:18.869Z,28.58
2022-08-03T20:38:27.238Z,28.48
2022-08-03T20:43:29.019Z,28.37
2022-08-03T20:48:32.044Z,28.24
2022-08-03T20:58:56.235Z,28.02
2022-08-03T21:03:58.164Z,27.85
2022-08-03T21:09:03.871Z,27.72
2022-08-03T21:13:07.722Z,28.14
2022-08-03T21:13:08.789Z,30.23
2022-08-03T21:14:12.856Z,27.63
2022-08-03T21:19:16.230Z,27.58
2022-08-03T21:24:17.840Z,27.59
2022-08-03T21:29:19.891Z,27.61
2022-08-03T21:34:21.419Z,27.63
2022-08-03T21:39:22.786Z,27.64
2022-08-03T21:44:28.867Z,27.65
2022-08-03T21:50:07.503Z,27.64
2022-08-03T21:54:54.948Z,27.62
2022-08-03T22:00:01.530Z,27.58
2022-08-03T22:05:04.847Z,27.51
2022-08-03T22:10:07.333Z,27.44
2022-08-03T22:15:10.786Z,27.37
2022-08-03T22:20:16.190Z,27.31
2022-08-03T22:25:17.632Z,27.27
2022-08-03T22:30:19.386Z,27.20
2022-08-03T22:35:21.251Z,27.15
2022-08-03T22:40:22.577Z,27.10
2022-08-03T22:46:06.171Z,27.09
2022-08-03T22:50:46.293Z,27.06
2022-08-03T22:55:48.748Z,27.06
2022-08-03T23:00:53.124Z,27.06
2022-08-03T23:06:01.186Z,27.04
2022-08-03T23:11:08.377Z,27.02
2022-08-03T23:16:09.886Z,27.00
2022-08-03T23:21:11.877Z,26.98
2022-08-03T23:26:17.159Z,26.97
2022-08-03T23:31:19.570Z,26.94
2022-08-03T23:36:30.547Z,26.93
2022-08-03T23:41:34.672Z,26.92
2022-08-03T23:46:37.085Z,26.90
2022-08-03T23:51:57.208Z,26.87
2022-08-03T23:57:08.369Z,26.79
